createdAt,value
2023-02-26T00:01:43.182Z,-1.90
2023-02-26T00:04:11.544Z,-1.90
2023-02-26T00:06:53.029Z,-1.90
2023-02-26T00:11:50.230Z,-2.00
2023-02-26T00:16:58.133Z,-1.40
2023-02-26T00:19:25.708Z,-2.10
2023-02-26T00:21:53.148Z,-2.20
2023-02-26T00:26:47.749Z,-2.30
2023-02-26T00:29:15.309Z,-2.30
2023-02-26T00:31:42.785Z,-2.40
2023-02-26T00:34:13.678Z,-2.40
2023-02-26T00:37:24.620Z,-2.40
2023-02-26T00:40:30.319Z,-2.50
2023-02-26T00:42:57.704Z,-2.60
2023-02-26T00:48:20.805Z,-2.60
2023-02-26T00:51:13.195Z,-2.60
2023-02-26T00:54:21.745Z,-2.60
2023-02-26T00:56:54.031Z,-2.70
2023-02-26T00:59:22.675Z,-2.70
2023-02-26T01:01:51.439Z,-2.70
2023-02-26T01:04:23.579Z,-2.70
2023-02-26T01:06:58.212Z,-2.80
2023-02-26T01:09:33.797Z,-2.90
2023-02-26T01:12:17.333Z,-2.90
2023-02-26T01:14:47.286Z,-3.00
2023-02-26T01:17:39.999Z,-2.90
2023-02-26T01:20:25.243Z,-2.90
2023-02-26T01:23:04.105Z,-3.00
2023-02-26T01:25:51.965Z,-3.00
2023-02-26T01:30:47.472Z,-3.10
2023-02-26T01:33:31.653Z,-3.00
2023-02-26T01:39:30.148Z,-3.10
2023-02-26T01:42:31.745Z,-3.00
2023-02-26T01:45:11.716Z,-3.10
2023-02-26T01:48:06.298Z,-3.20
2023-02-26T01:50:38.565Z,-3.20
2023-02-26T01:53:24.667Z,-3.30
2023-02-26T01:56:19.544Z,-3.40
2023-02-26T01:58:49.989Z,-3.50
2023-02-26T02:01:17.080Z,-3.50
2023-02-26T02:03:44.138Z,-3.60
2023-02-26T02:06:26.915Z,-3.70
2023-02-26T02:14:38.704Z,-3.80
2023-02-26T02:17:39.856Z,-3.80
2023-02-26T02:21:00.638Z,-3.90
2023-02-26T02:23:46.102Z,-3.90
2023-02-26T02:26:50.449Z,-4.00
2023-02-26T02:30:06.090Z,-4.10
2023-02-26T02:32:45.013Z,-4.20
2023-02-26T02:35:34.682Z,-4.20
2023-02-26T02:38:23.869Z,-4.20
2023-02-26T02:41:04.230Z,-5.60
2023-02-26T02:43:36.534Z,-4.30
2023-02-26T02:46:20.148Z,-4.40
2023-02-26T02:49:05.704Z,-4.40
2023-02-26T02:51:52.384Z,-4.50
2023-02-26T02:54:36.111Z,-4.50
2023-02-26T02:57:18.548Z,-4.50
2023-02-26T02:59:52.833Z,-4.50
2023-02-26T03:03:03.065Z,-4.50
2023-02-26T03:08:11.123Z,-4.60
2023-02-26T03:13:06.430Z,-4.60
2023-02-26T03:15:57.807Z,-4.60
2023-02-26T03:19:22.298Z,-4.80
2023-02-26T03:22:17.875Z,-4.90
2023-02-26T03:25:19.300Z,-5.00
2023-02-26T03:28:30.582Z,-5.10
2023-02-26T03:31:19.323Z,-5.00
2023-02-26T03:34:05.946Z,-5.00
2023-02-26T03:36:45.822Z,-4.90
2023-02-26T03:39:28.639Z,-4.80
2023-02-26T03:42:19.006Z,-4.80
2023-02-26T03:44:59.782Z,-4.80
2023-02-26T03:47:28.228Z,-4.80
2023-02-26T03:50:39.067Z,-4.90
2023-02-26T03:53:45.154Z,-4.90
2023-02-26T03:56:53.610Z,-5.00
2023-02-26T03:59:39.389Z,-5.00
2023-02-26T04:03:08.181Z,-5.00
2023-02-26T04:05:48.415Z,-4.90
2023-02-26T04:08:15.751Z,-4.90
2023-02-26T04:10:57.224Z,-5.00
2023-02-26T04:13:25.855Z,-5.10
2023-02-26T04:15:53.020Z,-5.00
2023-02-26T04:20:49.460Z,-4.60
2023-02-26T04:23:17.268Z,-4.30
2023-02-26T04:25:44.393Z,-4.20
2023-02-26T04:28:13.388Z,-4.10
2023-02-26T04:30:41.389Z,-4.10
2023-02-26T04:33:10.539Z,-4.00
2023-02-26T04:35:37.609Z,-4.00
2023-02-26T04:38:05.262Z,-4.00
2023-02-26T04:40:32.835Z,-4.00
2023-02-26T04:43:00.137Z,-4.00
2023-02-26T04:45:30.686Z,-4.10
2023-02-26T04:50:25.259Z,-4.20
2023-02-26T04:52:53.962Z,-4.30
2023-02-26T04:55:21.496Z,-4.30
2023-02-26T04:57:48.924Z,-4.40
2023-02-26T05:00:17.251Z,-4.50
2023-02-26T05:02:44.456Z,-4.50
2023-02-26T05:05:11.483Z,-4.40
2023-02-26T05:07:39.181Z,-4.50
2023-02-26T05:10:08.575Z,-4.40
2023-02-26T05:12:35.939Z,-4.40
2023-02-26T05:15:03.847Z,-4.40
2023-02-26T05:24:54.495Z,-4.30
2023-02-26T05:29:49.280Z,-4.10
2023-02-26T05:34:44.828Z,-2.20
2023-02-26T05:42:09.687Z,-3.80
2023-02-26T05:44:36.924Z,-3.80
2023-02-26T05:51:59.128Z,-3.60
2023-02-26T05:54:26.275Z,-3.60
2023-02-26T06:04:16.740Z,-3.50
2023-02-26T06:06:43.862Z,-3.60
2023-02-26T06:14:07.502Z,-3.70
2023-02-26T06:16:35.805Z,-3.80
2023-02-26T06:19:03.695Z,-3.90
2023-02-26T06:21:30.969Z,-3.90
2023-02-26T06:23:58.200Z,-4.00
2023-02-26T06:26:25.750Z,-4.00
2023-02-26T06:31:20.369Z,-3.90
2023-02-26T06:38:44.927Z,-3.80
2023-02-26T06:41:12.415Z,-3.80
2023-02-26T06:43:39.711Z,-3.80
2023-02-26T06:46:06.777Z,-3.70
2023-02-26T06:55:56.454Z,-3.70
2023-02-26T07:03:19.369Z,-3.50
2023-02-26T07:05:47.083Z,-3.50
2023-02-26T07:08:14.596Z,-3.40
2023-02-26T07:10:43.055Z,-3.40
2023-02-26T07:13:10.113Z,-3.30
2023-02-26T07:15:37.133Z,-3.30
2023-02-26T07:18:04.431Z,-3.20
2023-02-26T07:20:32.738Z,-3.20
2023-02-26T07:23:00.100Z,-3.20
2023-02-26T07:25:27.375Z,-3.10
2023-02-26T07:27:54.837Z,-3.10
2023-02-26T07:30:22.170Z,-3.10
2023-02-26T07:32:49.264Z,-3.00
2023-02-26T07:37:43.815Z,-2.80
2023-02-26T07:40:11.844Z,-2.60
2023-02-26T07:42:39.681Z,-2.40
2023-02-26T07:45:08.444Z,-2.30
2023-02-26T07:47:35.525Z,-2.20
2023-02-26T07:54:58.255Z,-1.90
2023-02-26T07:57:25.312Z,-1.80
2023-02-26T07:59:52.302Z,-1.80
2023-02-26T08:02:19.443Z,-1.60
2023-02-26T08:04:46.830Z,-1.40
2023-02-26T08:09:41.549Z,-1.10
2023-02-26T08:12:08.674Z,-1.00
2023-02-26T08:14:35.666Z,-0.80
2023-02-26T08:17:02.876Z,-0.80
2023-02-26T08:24:25.235Z,-0.90
2023-02-26T08:26:52.653Z,-0.90
2023-02-26T08:29:20.070Z,-0.80
2023-02-26T08:31:47.306Z,-0.70
2023-02-26T08:34:14.677Z,-0.80
2023-02-26T08:36:42.091Z,-0.90
2023-02-26T08:39:09.482Z,-0.80
2023-02-26T08:44:05.162Z,-0.60
2023-02-26T08:46:32.218Z,-0.60
2023-02-26T08:49:02.986Z,-0.60
2023-02-26T08:53:59.628Z,-0.60
2023-02-26T08:56:27.095Z,-0.70
2023-02-26T08:58:54.335Z,-0.70
2023-02-26T09:03:41.653Z,-0.50
2023-02-26T09:08:36.151Z,-0.20
2023-02-26T09:11:04.217Z,-0.20
2023-02-26T09:13:31.686Z,-0.10
2023-02-26T09:18:26.587Z,0.20
2023-02-26T09:20:53.622Z,0.30
2023-02-26T09:25:55.256Z,0.80
2023-02-26T09:28:25.558Z,-1.50
2023-02-26T09:30:55.636Z,1.50
2023-02-26T09:33:23.618Z,1.80
2023-02-26T09:35:52.501Z,1.90
2023-02-26T09:38:26.999Z,2.40
2023-02-26T09:41:02.553Z,2.10
2023-02-26T09:44:19.191Z,2.40
2023-02-26T09:47:10.726Z,2.50
2023-02-26T09:50:07.037Z,2.80
2023-02-26T09:53:01.114Z,2.80
2023-02-26T09:55:47.552Z,2.40
2023-02-26T09:58:37.679Z,2.70
2023-02-26T10:01:16.357Z,2.50
2023-02-26T10:05:03.475Z,2.50
2023-02-26T10:07:58.840Z,2.20
2023-02-26T10:11:08.474Z,2.70
2023-02-26T10:13:57.876Z,4.20
2023-02-26T10:16:40.762Z,4.30
2023-02-26T10:19:19.195Z,3.60
2023-02-26T10:22:21.354Z,3.50
2023-02-26T10:25:23.120Z,3.40
2023-02-26T10:28:14.580Z,2.80
2023-02-26T10:31:12.433Z,2.30
2023-02-26T10:34:18.818Z,2.10
2023-02-26T10:37:01.214Z,3.40
2023-02-26T10:39:43.943Z,2.80
2023-02-26T10:42:30.752Z,2.40
2023-02-26T10:45:42.870Z,1.90
2023-02-26T10:49:14.475Z,2.00
2023-02-26T10:51:47.146Z,2.20
2023-02-26T10:54:31.694Z,2.50
2023-02-26T10:56:58.740Z,2.40
2023-02-26T10:59:27.204Z,2.40
2023-02-26T11:01:55.882Z,2.80
2023-02-26T11:04:26.826Z,2.80
2023-02-26T11:06:59.516Z,1.70
2023-02-26T11:09:42.143Z,1.50
2023-02-26T11:12:13.398Z,1.40
2023-02-26T11:14:43.280Z,1.60
2023-02-26T11:17:29.571Z,1.70
2023-02-26T11:20:05.196Z,1.90
2023-02-26T11:22:36.271Z,2.50
2023-02-26T11:25:05.440Z,1.90
2023-02-26T11:27:38.094Z,2.00
2023-02-26T11:30:26.373Z,2.10
2023-02-26T11:32:59.320Z,3.40
2023-02-26T11:35:27.810Z,4.60
2023-02-26T11:38:01.410Z,5.50
2023-02-26T11:40:55.956Z,5.90
2023-02-26T11:43:33.310Z,4.90
2023-02-26T11:46:03.340Z,4.20
2023-02-26T11:48:47.853Z,4.50
2023-02-26T11:51:22.598Z,4.80
2023-02-26T11:54:01.906Z,5.20
2023-02-26T11:56:42.119Z,5.20
2023-02-26T11:59:24.171Z,4.90
2023-02-26T12:01:53.876Z,5.50
2023-02-26T12:04:27.859Z,6.10
2023-02-26T12:06:56.717Z,6.40
2023-02-26T12:09:26.480Z,6.00
2023-02-26T12:12:15.112Z,6.30
2023-02-26T12:15:39.009Z,6.80
2023-02-26T12:19:01.017Z,6.80
2023-02-26T12:22:23.196Z,6.70
2023-02-26T12:25:40.845Z,5.00
2023-02-26T12:28:36.407Z,3.50
2023-02-26T12:31:59.119Z,2.70
2023-02-26T12:34:47.184Z,2.20
2023-02-26T12:38:05.207Z,2.20
2023-02-26T12:40:49.182Z,3.10
2023-02-26T12:43:46.359Z,3.00
2023-02-26T12:46:47.626Z,2.90
2023-02-26T12:50:09.639Z,2.30
2023-02-26T12:53:14.172Z,2.10
2023-02-26T12:56:11.923Z,2.20
2023-02-26T12:59:14.701Z,2.10
2023-02-26T13:02:53.852Z,1.60
2023-02-26T13:06:29.261Z,1.50
2023-02-26T13:09:45.500Z,2.30
2023-02-26T13:15:52.741Z,5.30
2023-02-26T13:18:50.577Z,5.80
2023-02-26T13:21:27.218Z,4.30
2023-02-26T13:24:12.210Z,2.50
2023-02-26T13:26:42.090Z,1.60
2023-02-26T13:29:22.158Z,1.00
2023-02-26T13:32:13.830Z,0.80
2023-02-26T13:35:06.065Z,0.90
2023-02-26T13:37:46.990Z,1.20
2023-02-26T13:40:57.090Z,1.50
2023-02-26T13:44:03.612Z,2.50
2023-02-26T13:46:49.150Z,3.60
2023-02-26T13:49:37.893Z,4.70
2023-02-26T13:52:04.951Z,4.80
2023-02-26T13:54:45.451Z,6.00
2023-02-26T13:57:48.776Z,4.10
2023-02-26T14:03:13.540Z,2.30
2023-02-26T14:05:46.545Z,3.50
2023-02-26T14:08:39.986Z,3.80
2023-02-26T14:11:47.062Z,3.50
2023-02-26T14:14:25.106Z,3.20
2023-02-26T14:17:28.844Z,2.50
2023-02-26T14:19:55.752Z,1.90
2023-02-26T14:22:41.723Z,1.60
2023-02-26T14:25:42.433Z,1.60
2023-02-26T14:28:24.964Z,1.70
2023-02-26T14:31:05.617Z,2.30
2023-02-26T14:34:14.301Z,1.60
2023-02-26T14:37:06.973Z,1.50
2023-02-26T14:40:14.402Z,1.50
2023-02-26T14:43:04.126Z,1.80
2023-02-26T14:45:45.775Z,3.50
2023-02-26T14:48:20.475Z,4.30
2023-02-26T14:51:16.597Z,4.90
2023-02-26T14:54:39.077Z,4.90
2023-02-26T14:57:58.555Z,3.70
2023-02-26T15:01:19.368Z,1.90
2023-02-26T15:04:34.388Z,0.60
2023-02-26T15:07:33.689Z,0.00
2023-02-26T15:10:47.239Z,-0.30
2023-02-26T15:13:45.637Z,-0.30
2023-02-26T15:17:15.054Z,-0.20
2023-02-26T15:20:12.798Z,-0.30
2023-02-26T15:23:23.269Z,-0.30
2023-02-26T15:25:51.616Z,-0.30
2023-02-26T15:28:29.781Z,-0.30
2023-02-26T15:31:00.014Z,-0.30
2023-02-26T15:33:27.840Z,-0.30
2023-02-26T15:35:58.938Z,-0.20
2023-02-26T15:38:27.351Z,-0.20
2023-02-26T15:41:02.251Z,-0.10
2023-02-26T15:43:30.004Z,0.00
2023-02-26T15:46:03.286Z,0.50
2023-02-26T15:48:38.335Z,1.20
2023-02-26T15:51:23.063Z,1.10
2023-02-26T15:53:53.600Z,1.10
2023-02-26T15:56:26.809Z,1.30
2023-02-26T15:59:13.348Z,1.00
2023-02-26T16:01:41.456Z,0.80
2023-02-26T16:04:19.405Z,0.50
2023-02-26T16:06:57.069Z,0.40
2023-02-26T16:09:36.301Z,0.20
2023-02-26T16:12:16.386Z,0.20
2023-02-26T16:15:01.562Z,0.20
2023-02-26T16:17:34.702Z,0.30
2023-02-26T16:20:17.198Z,0.30
2023-02-26T16:23:12.646Z,0.40
2023-02-26T16:25:54.062Z,0.40
2023-02-26T16:28:29.198Z,0.30
2023-02-26T16:31:01.366Z,0.20
2023-02-26T16:33:35.167Z,0.20
2023-02-26T16:36:17.551Z,0.10
2023-02-26T16:39:06.868Z,0.00
2023-02-26T16:41:39.643Z,-0.10
2023-02-26T16:44:31.869Z,-0.20
2023-02-26T16:47:00.725Z,-0.30
2023-02-26T16:49:33.811Z,-0.40
2023-02-26T16:52:02.154Z,-0.40
2023-02-26T16:54:43.209Z,-0.40
2023-02-26T16:57:34.138Z,-0.50
2023-02-26T17:00:13.876Z,-0.50
2023-02-26T17:02:44.306Z,-0.60
2023-02-26T17:05:28.577Z,-0.60
2023-02-26T17:08:20.042Z,-0.70
2023-02-26T17:11:01.911Z,-0.80
2023-02-26T17:13:33.714Z,-0.90
2023-02-26T17:16:12.051Z,-0.90
2023-02-26T17:18:39.179Z,-0.80
2023-02-26T17:21:06.707Z,-0.80
2023-02-26T17:23:38.684Z,-0.80
2023-02-26T17:26:06.335Z,-0.80
2023-02-26T17:28:40.750Z,-0.80
2023-02-26T17:31:09.003Z,-0.70
2023-02-26T17:33:40.812Z,-0.70
2023-02-26T17:36:14.477Z,-0.80
2023-02-26T17:38:46.825Z,-0.80
2023-02-26T17:41:19.660Z,-0.80
2023-02-26T17:43:46.764Z,-0.90
2023-02-26T17:46:14.481Z,-0.90
2023-02-26T17:48:41.864Z,-0.90
2023-02-26T17:51:10.996Z,-1.00
2023-02-26T17:53:40.963Z,-1.10
2023-02-26T17:56:24.175Z,-1.20
2023-02-26T17:58:54.390Z,-1.30
2023-02-26T18:01:29.062Z,-1.40
2023-02-26T18:03:57.720Z,-1.50
2023-02-26T18:06:31.015Z,-1.60
2023-02-26T18:11:26.637Z,-1.50
2023-02-26T18:13:55.232Z,-1.50
2023-02-26T18:16:33.158Z,-1.60
2023-02-26T18:19:01.881Z,-1.60
2023-02-26T18:21:29.404Z,-1.60
2023-02-26T18:23:57.701Z,-1.60
2023-02-26T18:26:27.639Z,-1.60
2023-02-26T18:31:33.092Z,-1.70
2023-02-26T18:34:01.661Z,-1.80
2023-02-26T18:36:37.470Z,-1.80
2023-02-26T18:39:12.441Z,-1.80
2023-02-26T18:44:08.141Z,-1.60
2023-02-26T18:49:18.296Z,-1.50
2023-02-26T18:51:45.966Z,-1.50
2023-02-26T18:54:13.335Z,-1.40
2023-02-26T18:59:08.437Z,-1.40
2023-02-26T19:01:36.266Z,-1.40
2023-02-26T19:06:31.078Z,-1.50
2023-02-26T19:09:02.642Z,-1.50
2023-02-26T19:11:31.135Z,-1.60
2023-02-26T19:13:58.475Z,-1.60
2023-02-26T19:16:25.932Z,-1.70
2023-02-26T19:18:54.245Z,-1.70
2023-02-26T19:21:21.942Z,-1.70
2023-02-26T19:23:49.090Z,-1.80
2023-02-26T19:28:44.016Z,-1.90
2023-02-26T19:31:11.267Z,-1.90
2023-02-26T19:36:06.603Z,-2.00
2023-02-26T19:38:33.920Z,-2.00
2023-02-26T19:41:01.446Z,-2.00
2023-02-26T19:45:56.522Z,-2.10
2023-02-26T19:48:23.736Z,-2.10
2023-02-26T19:50:52.496Z,-2.10
2023-02-26T19:53:20.390Z,-2.10
2023-02-26T19:55:51.081Z,-2.00
2023-02-26T19:58:20.258Z,-2.00
2023-02-26T20:00:47.399Z,-2.00
2023-02-26T20:05:42.703Z,-2.00
2023-02-26T20:08:10.586Z,-2.00
2023-02-26T20:10:37.986Z,-2.00
2023-02-26T20:15:39.365Z,-2.10
2023-02-26T20:18:07.499Z,-2.10
2023-02-26T20:23:04.152Z,-2.20
2023-02-26T20:27:58.786Z,-2.20
2023-02-26T20:30:26.905Z,-2.20
2023-02-26T20:32:54.277Z,-2.20
2023-02-26T20:35:21.448Z,-2.20
2023-02-26T20:45:11.843Z,-2.40
2023-02-26T20:47:39.041Z,-2.30
2023-02-26T20:50:07.246Z,-2.40
2023-02-26T20:52:34.536Z,-2.40
2023-02-26T20:57:32.265Z,-2.50
2023-02-26T20:59:59.824Z,-2.50
2023-02-26T21:07:22.391Z,-2.50
2023-02-26T21:09:52.075Z,-2.60
2023-02-26T21:12:19.560Z,-2.50
2023-02-26T21:17:14.242Z,-2.60
2023-02-26T21:27:04.229Z,-2.70
2023-02-26T21:32:03.219Z,-2.70
2023-02-26T21:34:34.750Z,-2.70
2023-02-26T21:37:06.118Z,-2.70
2023-02-26T21:39:34.342Z,-2.70
2023-02-26T21:42:03.661Z,-2.60
2023-02-26T21:44:34.168Z,-2.70
2023-02-26T21:47:03.045Z,-2.70
2023-02-26T21:49:31.915Z,-2.60
2023-02-26T21:52:05.775Z,-2.70
2023-02-26T21:54:33.728Z,-2.70
2023-02-26T21:57:00.910Z,-2.70
2023-02-26T22:01:56.058Z,-2.70
2023-02-26T22:04:23.656Z,-2.80
2023-02-26T22:06:50.728Z,-2.70
2023-02-26T22:09:20.210Z,-2.80
2023-02-26T22:11:47.916Z,-2.90
2023-02-26T22:14:15.316Z,-3.00
2023-02-26T22:16:45.355Z,-3.00
2023-02-26T22:21:39.938Z,-2.80
2023-02-26T22:24:07.763Z,-2.70
2023-02-26T22:26:35.009Z,-2.80
2023-02-26T22:29:03.630Z,-2.80
2023-02-26T22:34:01.002Z,-2.90
2023-02-26T22:36:30.099Z,-3.00
2023-02-26T22:38:57.295Z,-3.00
2023-02-26T22:41:24.398Z,-3.00
2023-02-26T22:43:53.900Z,-3.00
2023-02-26T22:46:24.132Z,-3.10
2023-02-26T22:48:51.698Z,-3.10
2023-02-26T22:51:18.691Z,-3.00
2023-02-26T22:53:46.016Z,-2.90
2023-02-26T22:56:13.178Z,-2.90
2023-02-26T22:58:40.320Z,-3.00
2023-02-26T23:01:08.561Z,-2.90
2023-02-26T23:06:03.449Z,-3.00
2023-02-26T23:08:30.642Z,-2.80
2023-02-26T23:11:02.491Z,-2.90
2023-02-26T23:13:34.187Z,-3.00
2023-02-26T23:16:05.403Z,-3.00
2023-02-26T23:18:34.020Z,-2.90
2023-02-26T23:21:01.124Z,-3.00
2023-02-26T23:25:55.823Z,-3.00
2023-02-26T23:30:52.820Z,-3.00
2023-02-26T23:33:19.994Z,-3.10
2023-02-26T23:35:47.755Z,-3.10
2023-02-26T23:43:10.189Z,-3.10
2023-02-26T23:45:37.249Z,-3.20
2023-02-26T23:52:59.350Z,-3.20
2023-02-26T23:55:26.652Z,-3.20
2023-02-26T23:57:53.630Z,-3.20
